createdAt,value
2022-08-28T00:00:22.345Z,98773.86
2022-08-28T00:01:09.778Z,98776.44
2022-08-28T00:01:43.008Z,98772.45
2022-08-28T00:02:16.264Z,98770.48
2022-08-28T00:02:49.649Z,98771.30
2022-08-28T00:03:22.959Z,98770.84
2022-08-28T00:03:56.266Z,98769.73
2022-08-28T00:04:29.530Z,98770.63
2022-08-28T00:05:02.771Z,98770.30
2022-08-28T00:05:36.399Z,98771.04
2022-08-28T00:06:12.049Z,98770.34
2022-08-28T00:06:46.026Z,98769.33
2022-08-28T00:07:19.600Z,98771.17
2022-08-28T00:07:52.865Z,98767.98
2022-08-28T00:08:26.769Z,98768.44
2022-08-28T00:08:59.901Z,98769.07
2022-08-28T00:09:33.115Z,98763.73
2022-08-28T00:10:08.277Z,98765.77
2022-08-28T00:10:42.127Z,98763.29
2022-08-28T00:11:15.354Z,98761.42
2022-08-28T00:11:49.718Z,98760.04
2022-08-28T00:12:23.051Z,98759.79
2022-08-28T00:12:57.623Z,98760.16
2022-08-28T00:13:31.851Z,98758.42
2022-08-28T00:14:07.779Z,98760.58
2022-08-28T00:14:40.950Z,98761.27
2022-08-28T00:15:17.772Z,98760.88
2022-08-28T00:15:56.096Z,98760.06
2022-08-28T00:16:30.823Z,98759.77
2022-08-28T00:17:04.210Z,98761.05
2022-08-28T00:17:37.415Z,98758.82
2022-08-28T00:18:10.680Z,98762.58
2022-08-28T00:18:43.873Z,98765.91
2022-08-28T00:19:21.475Z,98762.21
2022-08-28T00:19:54.629Z,98764.10
2022-08-28T00:20:30.186Z,98763.16
2022-08-28T00:21:04.033Z,98764.14
2022-08-28T00:21:37.920Z,98764.30
2022-08-28T00:22:11.267Z,98764.35
2022-08-28T00:22:45.248Z,98761.33
2022-08-28T00:23:19.776Z,98763.66
2022-08-28T00:23:53.862Z,98764.24
2022-08-28T00:24:27.153Z,98764.89
2022-08-28T00:25:00.386Z,98764.02
2022-08-28T00:25:35.295Z,98764.52
2022-08-28T00:26:08.634Z,98761.94
2022-08-28T00:27:00.687Z,98761.39
2022-08-28T00:27:52.815Z,98762.91
2022-08-28T00:28:26.536Z,98761.48
2022-08-28T00:29:00.224Z,98756.69
2022-08-28T00:29:33.598Z,98759.17
2022-08-28T00:30:07.602Z,98756.27
2022-08-28T00:30:48.695Z,98756.91
2022-08-28T00:31:24.197Z,98755.59
2022-08-28T00:31:57.791Z,98761.48
2022-08-28T00:32:30.936Z,98756.29
2022-08-28T00:33:31.596Z,98756.11
2022-08-28T00:34:04.976Z,98757.86
2022-08-28T00:34:39.086Z,98757.73
2022-08-28T00:35:12.895Z,98756.01
2022-08-28T00:35:48.353Z,98756.07
2022-08-28T00:36:21.452Z,98755.00
2022-08-28T00:36:55.197Z,98758.05
2022-08-28T00:37:28.654Z,98761.21
2022-08-28T00:38:02.845Z,98756.86
2022-08-28T00:38:36.197Z,98761.05
2022-08-28T00:39:10.154Z,98758.05
2022-08-28T00:39:43.589Z,98758.13
2022-08-28T00:40:22.102Z,98760.35
2022-08-28T00:41:04.846Z,98760.44
2022-08-28T00:41:41.230Z,98762.55
2022-08-28T00:42:14.622Z,98758.55
2022-08-28T00:42:48.367Z,98762.34
2022-08-28T00:43:24.836Z,98757.48
2022-08-28T00:44:14.593Z,98762.48
2022-08-28T00:44:48.913Z,98760.71
2022-08-28T00:45:24.684Z,98761.55
2022-08-28T00:45:57.940Z,98760.95
2022-08-28T00:46:31.071Z,98760.84
2022-08-28T00:47:04.397Z,98760.95
2022-08-28T00:47:39.436Z,98762.66
2022-08-28T00:48:12.780Z,98763.10
2022-08-28T00:48:46.370Z,98761.94
2022-08-28T00:49:24.179Z,98763.05
2022-08-28T00:49:57.539Z,98763.00
2022-08-28T00:50:53.745Z,98765.13
2022-08-28T00:51:53.552Z,98763.58
2022-08-28T00:52:28.050Z,98762.52
2022-08-28T00:53:01.833Z,98762.63
2022-08-28T00:53:35.038Z,98763.79
2022-08-28T00:54:09.754Z,98764.02
2022-08-28T00:54:59.638Z,98765.40
2022-08-28T00:55:33.086Z,98762.70
2022-08-28T00:56:13.213Z,98762.10
2022-08-28T00:56:48.136Z,98763.27
2022-08-28T00:58:00.916Z,98762.48
2022-08-28T00:58:34.484Z,98763.89
2022-08-28T00:59:15.263Z,98762.66
2022-08-28T00:59:48.291Z,98763.88
2022-08-28T01:00:32.193Z,98764.25
2022-08-28T01:01:05.545Z,98762.84
2022-08-28T01:01:39.433Z,98764.39
2022-08-28T01:02:13.187Z,98764.30
2022-08-28T01:02:46.753Z,98764.66
2022-08-28T01:03:19.974Z,98765.36
2022-08-28T01:03:58.539Z,98765.08
2022-08-28T01:04:33.070Z,98765.98
2022-08-28T01:05:09.826Z,98766.40
2022-08-28T01:05:48.291Z,98767.26
2022-08-28T01:06:22.287Z,98768.48
2022-08-28T01:06:57.505Z,98767.97
2022-08-28T01:07:32.084Z,98768.61
2022-08-28T01:08:05.675Z,98767.43
2022-08-28T01:08:43.000Z,98767.34
2022-08-28T01:09:21.105Z,98767.95
2022-08-28T01:09:56.123Z,98771.84
2022-08-28T01:10:32.924Z,98766.73
2022-08-28T01:11:08.383Z,98769.41
2022-08-28T01:11:46.826Z,98772.65
2022-08-28T01:12:24.720Z,98771.98
2022-08-28T01:12:59.350Z,98771.61
2022-08-28T01:13:33.294Z,98773.96
2022-08-28T01:14:09.368Z,98774.55
2022-08-28T01:14:46.175Z,98776.38
2022-08-28T01:15:23.276Z,98771.95
2022-08-28T01:15:58.377Z,98774.77
2022-08-28T01:16:34.377Z,98775.41
2022-08-28T01:17:09.938Z,98773.78
2022-08-28T01:17:48.234Z,98774.21
2022-08-28T01:18:22.503Z,98773.17
2022-08-28T01:18:56.798Z,98774.14
2022-08-28T01:19:41.516Z,98773.08
2022-08-28T01:20:18.980Z,98774.17
2022-08-28T01:21:02.540Z,98776.62
2022-08-28T01:21:35.565Z,98774.15
2022-08-28T01:22:08.656Z,98777.13
2022-08-28T01:22:50.796Z,98776.27
2022-08-28T01:23:53.703Z,98776.96
2022-08-28T01:24:28.289Z,98776.20
2022-08-28T01:25:03.778Z,98780.08
2022-08-28T01:25:38.250Z,98781.89
2022-08-28T01:26:11.856Z,98780.52
2022-08-28T01:26:45.280Z,98783.08
2022-08-28T01:27:19.093Z,98780.48
2022-08-28T01:27:52.377Z,98780.75
2022-08-28T01:28:25.604Z,98779.61
2022-08-28T01:29:01.091Z,98782.08
2022-08-28T01:29:34.831Z,98782.34
2022-08-28T01:30:11.019Z,98782.08
2022-08-28T01:30:46.950Z,98782.64
2022-08-28T01:31:21.855Z,98781.90
2022-08-28T01:31:55.568Z,98778.84
2022-08-28T01:32:34.291Z,98782.09
2022-08-28T01:33:08.010Z,98779.52
2022-08-28T01:33:43.783Z,98782.21
2022-08-28T01:34:16.987Z,98783.60
2022-08-28T01:34:50.152Z,98778.83
2022-08-28T01:35:27.551Z,98779.30
2022-08-28T01:36:00.847Z,98781.39
2022-08-28T01:36:34.316Z,98781.64
2022-08-28T01:37:07.539Z,98782.59
2022-08-28T01:37:41.631Z,98784.02
2022-08-28T01:38:20.100Z,98787.70
2022-08-28T01:38:59.889Z,98786.39
2022-08-28T01:39:33.566Z,98787.40
2022-08-28T01:40:09.693Z,98789.06
2022-08-28T01:40:47.111Z,98790.40
2022-08-28T01:41:21.095Z,98790.10
2022-08-28T01:41:55.862Z,98792.13
2022-08-28T01:42:29.177Z,98792.72
2022-08-28T01:43:20.597Z,98791.77
2022-08-28T01:43:54.554Z,98790.21
2022-08-28T01:44:28.487Z,98790.92
2022-08-28T01:45:01.604Z,98791.77
2022-08-28T01:45:38.230Z,98792.88
2022-08-28T01:46:12.675Z,98790.00
2022-08-28T01:46:46.833Z,98790.34
2022-08-28T01:47:22.221Z,98793.63
2022-08-28T01:47:55.638Z,98791.09
2022-08-28T01:48:30.867Z,98791.63
2022-08-28T01:49:04.771Z,98789.70
2022-08-28T01:49:38.013Z,98788.44
2022-08-28T01:50:13.939Z,98791.38
2022-08-28T01:50:47.159Z,98788.30
2022-08-28T01:51:24.405Z,98788.99
2022-08-28T01:51:58.935Z,98790.80
2022-08-28T01:52:32.251Z,98791.11
2022-08-28T01:53:12.468Z,98791.48
2022-08-28T01:53:46.630Z,98790.27
2022-08-28T01:54:20.487Z,98788.67
2022-08-28T01:54:54.284Z,98791.77
2022-08-28T01:55:29.647Z,98790.46
2022-08-28T01:56:08.174Z,98793.42
2022-08-28T01:56:44.671Z,98790.67
2022-08-28T01:57:17.988Z,98791.90
2022-08-28T01:57:54.234Z,98790.46
2022-08-28T01:58:29.209Z,98787.67
2022-08-28T01:59:07.188Z,98787.02
2022-08-28T01:59:40.855Z,98788.05
2022-08-28T02:00:16.168Z,98788.51
2022-08-28T02:00:49.379Z,98783.52
2022-08-28T02:01:22.831Z,98781.35
2022-08-28T02:01:56.557Z,98785.17
2022-08-28T02:02:30.209Z,98780.68
2022-08-28T02:03:04.166Z,98787.73
2022-08-28T02:03:37.276Z,98784.88
2022-08-28T02:04:11.865Z,98782.84
2022-08-28T02:04:48.016Z,98785.66
2022-08-28T02:05:23.199Z,98785.30
2022-08-28T02:05:56.539Z,98784.02
2022-08-28T02:06:29.725Z,98783.42
2022-08-28T02:07:02.986Z,98786.49
2022-08-28T02:07:36.637Z,98784.89
2022-08-28T02:08:10.329Z,98783.88
2022-08-28T02:08:44.494Z,98782.61
2022-08-28T02:09:18.141Z,98782.61
2022-08-28T02:09:51.974Z,98785.70
2022-08-28T02:10:30.453Z,98784.73
2022-08-28T02:11:08.973Z,98778.69
2022-08-28T02:11:45.325Z,98783.30
2022-08-28T02:12:20.892Z,98779.22
2022-08-28T02:12:59.117Z,98783.81
2022-08-28T02:13:32.897Z,98785.77
2022-08-28T02:14:06.804Z,98786.52
2022-08-28T02:14:40.049Z,98785.30
2022-08-28T02:15:13.523Z,98788.23
2022-08-28T02:15:47.496Z,98786.41
2022-08-28T02:16:21.053Z,98788.95
2022-08-28T02:16:54.198Z,98789.80
2022-08-28T02:17:27.306Z,98791.81
2022-08-28T02:18:01.203Z,98788.79
2022-08-28T02:18:34.671Z,98792.02
2022-08-28T02:19:07.976Z,98791.16
2022-08-28T02:19:41.120Z,98791.36
2022-08-28T02:20:14.492Z,98793.91
2022-08-28T02:20:47.849Z,98793.52
2022-08-28T02:21:21.716Z,98792.24
2022-08-28T02:21:56.467Z,98790.33
2022-08-28T02:22:33.580Z,98789.41
2022-08-28T02:23:06.796Z,98790.48
2022-08-28T02:23:43.115Z,98791.30
2022-08-28T02:24:17.386Z,98789.17
2022-08-28T02:24:50.587Z,98789.23
2022-08-28T02:25:24.456Z,98790.04
2022-08-28T02:25:57.777Z,98791.30
2022-08-28T02:26:32.477Z,98789.71
2022-08-28T02:27:10.303Z,98783.70
2022-08-28T02:27:44.479Z,98788.27
2022-08-28T02:28:17.650Z,98784.29
2022-08-28T02:28:51.086Z,98784.77
2022-08-28T02:29:26.264Z,98786.66
2022-08-28T02:29:59.438Z,98782.45
2022-08-28T02:30:38.647Z,98781.14
2022-08-28T02:31:12.015Z,98781.89
2022-08-28T02:31:45.178Z,98778.13
2022-08-28T02:32:19.551Z,98776.00
2022-08-28T02:32:52.762Z,98775.92
2022-08-28T02:33:25.891Z,98773.39
2022-08-28T02:33:59.048Z,98774.30
2022-08-28T02:34:33.965Z,98772.09
2022-08-28T02:35:12.189Z,98774.59
2022-08-28T02:35:45.458Z,98771.86
2022-08-28T02:36:18.865Z,98771.91
2022-08-28T02:36:53.772Z,98771.54
2022-08-28T02:37:26.939Z,98775.98
2022-08-28T02:38:01.782Z,98773.06
2022-08-28T02:38:35.735Z,98773.59
2022-08-28T02:39:09.152Z,98769.29
2022-08-28T02:39:42.325Z,98773.41
2022-08-28T02:40:18.395Z,98774.08
2022-08-28T02:40:53.086Z,98770.89
2022-08-28T02:41:26.642Z,98770.97
2022-08-28T02:41:59.967Z,98771.77
2022-08-28T02:42:33.147Z,98770.63
2022-08-28T02:43:06.477Z,98771.73
2022-08-28T02:43:41.243Z,98771.73
2022-08-28T02:44:14.390Z,98769.77
2022-08-28T02:44:47.562Z,98769.99
2022-08-28T02:45:21.217Z,98768.63
2022-08-28T02:45:55.529Z,98771.54
2022-08-28T02:46:30.165Z,98767.50
2022-08-28T02:47:04.578Z,98768.15
2022-08-28T02:47:42.698Z,98768.55
2022-08-28T02:48:17.068Z,98768.75
2022-08-28T02:48:50.676Z,98768.48
2022-08-28T02:49:24.263Z,98768.73
2022-08-28T02:49:57.426Z,98768.08
2022-08-28T02:50:32.295Z,98767.20
2022-08-28T02:51:09.439Z,98764.27
2022-08-28T02:51:42.643Z,98765.48
2022-08-28T02:52:16.253Z,98765.73
2022-08-28T02:52:49.451Z,98764.46
2022-08-28T02:53:22.919Z,98762.95
2022-08-28T02:53:56.568Z,98764.60
2022-08-28T02:54:29.728Z,98765.06
2022-08-28T02:55:03.902Z,98764.50
2022-08-28T02:55:37.532Z,98764.98
2022-08-28T02:56:12.057Z,98761.79
2022-08-28T02:56:45.936Z,98763.73
2022-08-28T02:57:19.048Z,98762.09
2022-08-28T02:57:54.823Z,98762.21
2022-08-28T02:58:28.203Z,98758.60
2022-08-28T02:59:01.455Z,98759.05
2022-08-28T02:59:38.456Z,98762.08
2022-08-28T03:00:14.920Z,98760.00
2022-08-28T03:00:48.367Z,98760.30
2022-08-28T03:01:22.174Z,98759.77
2022-08-28T03:01:56.035Z,98761.05
2022-08-28T03:02:29.287Z,98761.36
2022-08-28T03:03:03.149Z,98762.95
2022-08-28T03:03:36.661Z,98762.86
2022-08-28T03:04:11.485Z,98761.52
2022-08-28T03:04:44.885Z,98765.17
2022-08-28T03:05:21.479Z,98766.85
2022-08-28T03:05:56.237Z,98767.45
2022-08-28T03:06:30.327Z,98767.86
2022-08-28T03:07:06.510Z,98769.33
2022-08-28T03:07:39.697Z,98769.73
2022-08-28T03:08:13.238Z,98767.70
2022-08-28T03:08:46.768Z,98771.51
2022-08-28T03:09:19.943Z,98771.14
2022-08-28T03:09:53.087Z,98772.08
2022-08-28T03:10:26.309Z,98772.82
2022-08-28T03:11:00.419Z,98773.63
2022-08-28T03:11:34.174Z,98772.72
2022-08-28T03:12:08.744Z,98770.41
2022-08-28T03:12:42.271Z,98772.45
2022-08-28T03:13:26.685Z,98771.97
2022-08-28T03:14:03.702Z,98771.17
2022-08-28T03:14:37.818Z,98772.08
2022-08-28T03:15:11.749Z,98770.27
2022-08-28T03:15:46.706Z,98768.79
2022-08-28T03:16:25.809Z,98772.40
2022-08-28T03:16:58.976Z,98769.70
2022-08-28T03:17:32.537Z,98770.03
2022-08-28T03:18:10.836Z,98768.88
2022-08-28T03:18:44.767Z,98770.02
2022-08-28T03:19:17.886Z,98771.13
2022-08-28T03:19:52.054Z,98769.16
2022-08-28T03:20:25.184Z,98768.42
2022-08-28T03:20:58.396Z,98769.11
2022-08-28T03:21:31.679Z,98768.38
2022-08-28T03:22:04.778Z,98769.69
2022-08-28T03:22:57.014Z,98770.75
2022-08-28T03:23:30.494Z,98771.30
2022-08-28T03:24:04.317Z,98770.43
2022-08-28T03:24:38.000Z,98769.69
2022-08-28T03:25:12.729Z,98768.95
2022-08-28T03:25:45.863Z,98769.96
2022-08-28T03:26:21.000Z,98769.95
2022-08-28T03:26:54.351Z,98769.75
2022-08-28T03:27:27.586Z,98772.84
2022-08-28T03:28:00.835Z,98771.79
2022-08-28T03:28:42.951Z,98771.46
2022-08-28T03:29:16.749Z,98774.16
2022-08-28T03:29:50.026Z,98773.36
2022-08-28T03:30:24.049Z,98776.58
2022-08-28T03:30:58.381Z,98774.46
2022-08-28T03:31:33.981Z,98777.64
2022-08-28T03:32:07.180Z,98775.94
2022-08-28T03:32:40.485Z,98774.96
2022-08-28T03:33:14.857Z,98776.83
2022-08-28T03:33:48.608Z,98775.66
2022-08-28T03:34:22.365Z,98776.27
2022-08-28T03:34:55.693Z,98775.61
2022-08-28T03:35:29.284Z,98774.43
2022-08-28T03:36:04.788Z,98774.39
2022-08-28T03:36:38.236Z,98775.13
2022-08-28T03:37:11.385Z,98775.45
2022-08-28T03:37:44.740Z,98772.42
2022-08-28T03:38:18.971Z,98773.33
2022-08-28T03:38:55.296Z,98772.67
2022-08-28T03:39:28.407Z,98772.70
2022-08-28T03:40:02.132Z,98773.62
2022-08-28T03:40:39.823Z,98775.42
2022-08-28T03:41:15.316Z,98774.48
2022-08-28T03:41:48.497Z,98775.13
2022-08-28T03:42:21.696Z,98776.06
2022-08-28T03:42:55.685Z,98771.92
2022-08-28T03:43:29.571Z,98776.84
2022-08-28T03:44:03.709Z,98778.21
2022-08-28T03:44:39.424Z,98776.92
2022-08-28T03:45:12.701Z,98779.34
2022-08-28T03:46:17.330Z,98780.12
2022-08-28T03:46:51.794Z,98778.59
2022-08-28T03:47:25.187Z,98779.88
2022-08-28T03:47:58.504Z,98780.57
2022-08-28T03:48:36.620Z,98776.58
2022-08-28T03:49:09.775Z,98776.77
2022-08-28T03:49:45.703Z,98773.51
2022-08-28T03:50:19.093Z,98780.93
2022-08-28T03:50:53.692Z,98779.06
2022-08-28T03:51:33.362Z,98775.56
2022-08-28T03:52:06.811Z,98778.90
2022-08-28T03:52:41.680Z,98774.48
2022-08-28T03:53:15.063Z,98776.50
2022-08-28T03:53:48.503Z,98779.00
2022-08-28T03:54:21.852Z,98777.84
2022-08-28T03:54:55.129Z,98782.55
2022-08-28T03:55:29.311Z,98780.45
2022-08-28T03:56:02.735Z,98780.84
2022-08-28T03:56:36.047Z,98781.01
2022-08-28T03:57:09.332Z,98780.43
2022-08-28T03:57:42.673Z,98782.09
2022-08-28T03:58:19.064Z,98781.20
2022-08-28T03:58:55.872Z,98781.11
2022-08-28T03:59:31.770Z,98782.61
2022-08-28T04:00:11.541Z,98782.73
2022-08-28T04:00:46.284Z,98780.98
2022-08-28T04:01:21.274Z,98781.08
2022-08-28T04:01:55.423Z,98783.97
2022-08-28T04:02:29.719Z,98784.66
2022-08-28T04:03:03.126Z,98784.34
2022-08-28T04:03:37.081Z,98781.95
2022-08-28T04:04:10.416Z,98784.94
2022-08-28T04:04:45.017Z,98780.77
2022-08-28T04:05:18.446Z,98782.23
2022-08-28T04:05:52.318Z,98785.94
2022-08-28T04:06:26.257Z,98789.88
2022-08-28T04:06:59.863Z,98785.98
2022-08-28T04:07:33.082Z,98787.66
2022-08-28T04:08:06.910Z,98786.73
2022-08-28T04:08:40.637Z,98789.77
2022-08-28T04:09:13.683Z,98791.05
2022-08-28T04:09:47.721Z,98789.63
2022-08-28T04:10:20.907Z,98790.46
2022-08-28T04:10:55.192Z,98788.20
2022-08-28T04:11:29.151Z,98790.09
2022-08-28T04:12:02.516Z,98793.21
2022-08-28T04:12:37.315Z,98794.45
2022-08-28T04:13:11.341Z,98795.17
2022-08-28T04:13:44.708Z,98798.82
2022-08-28T04:14:17.962Z,98797.29
2022-08-28T04:14:51.169Z,98799.19
2022-08-28T04:15:24.291Z,98800.92
2022-08-28T04:16:06.263Z,98804.44
2022-08-28T04:16:40.072Z,98801.28
2022-08-28T04:17:13.450Z,98805.02
2022-08-28T04:17:46.595Z,98805.15
2022-08-28T04:18:19.808Z,98802.71
2022-08-28T04:18:52.848Z,98801.98
2022-08-28T04:19:26.243Z,98802.75
2022-08-28T04:19:59.331Z,98803.08
2022-08-28T04:20:32.626Z,98803.66
2022-08-28T04:21:12.393Z,98802.55
2022-08-28T04:21:45.807Z,98800.45
2022-08-28T04:22:19.004Z,98800.18
2022-08-28T04:22:55.104Z,98799.61
2022-08-28T04:23:29.767Z,98801.06
2022-08-28T04:24:04.954Z,98800.67
2022-08-28T04:24:41.734Z,98802.35
2022-08-28T04:25:15.060Z,98804.13
2022-08-28T04:25:48.462Z,98805.87
2022-08-28T04:26:25.839Z,98804.70
2022-08-28T04:26:59.073Z,98808.36
2022-08-28T04:27:32.332Z,98811.63
2022-08-28T04:28:05.749Z,98810.63
2022-08-28T04:28:39.018Z,98813.44
2022-08-28T04:29:12.540Z,98813.90
2022-08-28T04:29:45.812Z,98811.24
2022-08-28T04:30:19.079Z,98812.51
2022-08-28T04:30:57.445Z,98810.14
2022-08-28T04:31:31.772Z,98810.54
2022-08-28T04:32:06.154Z,98812.88
2022-08-28T04:32:40.520Z,98811.05
2022-08-28T04:33:14.090Z,98809.77
2022-08-28T04:33:47.281Z,98810.94
2022-08-28T04:34:20.449Z,98811.66
2022-08-28T04:34:54.228Z,98810.95
2022-08-28T04:35:27.668Z,98811.33
2022-08-28T04:36:19.709Z,98811.68
2022-08-28T04:36:52.867Z,98808.95
2022-08-28T04:37:27.840Z,98807.86
2022-08-28T04:38:02.531Z,98809.91
2022-08-28T04:38:43.728Z,98810.34
2022-08-28T04:39:17.442Z,98810.70
2022-08-28T04:39:50.703Z,98810.33
2022-08-28T04:40:24.740Z,98811.35
2022-08-28T04:40:58.935Z,98815.58
2022-08-28T04:41:32.551Z,98817.89
2022-08-28T04:42:05.805Z,98818.64
2022-08-28T04:42:40.374Z,98820.90
2022-08-28T04:43:13.835Z,98818.80
2022-08-28T04:43:47.900Z,98821.80
2022-08-28T04:44:21.412Z,98817.77
2022-08-28T04:45:01.323Z,98819.77
2022-08-28T04:45:45.825Z,98822.77
2022-08-28T04:46:19.357Z,98821.84
2022-08-28T04:46:53.629Z,98819.09
2022-08-28T04:47:28.076Z,98819.63
2022-08-28T04:48:05.502Z,98820.30
2022-08-28T04:48:44.857Z,98817.45
2022-08-28T04:49:18.234Z,98817.89
2022-08-28T04:49:51.685Z,98815.48
2022-08-28T04:50:25.681Z,98814.17
2022-08-28T04:50:58.931Z,98812.62
2022-08-28T04:51:32.776Z,98813.20
2022-08-28T04:52:05.873Z,98816.11
2022-08-28T04:52:40.003Z,98812.81
2022-08-28T04:53:15.389Z,98815.02
2022-08-28T04:53:49.099Z,98817.34
2022-08-28T04:54:22.464Z,98816.08
2022-08-28T04:54:56.122Z,98819.17
2022-08-28T04:55:52.804Z,98819.55
2022-08-28T04:56:22.936Z,98819.02
2022-08-28T04:56:56.058Z,98814.98
2022-08-28T04:57:31.268Z,98816.89
2022-08-28T04:58:08.377Z,98812.75
2022-08-28T04:58:44.474Z,98810.72
2022-08-28T04:59:18.000Z,98810.89
2022-08-28T04:59:51.302Z,98805.15
2022-08-28T05:00:24.454Z,98802.14
2022-08-28T05:00:57.741Z,98800.48
2022-08-28T05:01:31.817Z,98798.25
2022-08-28T05:02:06.135Z,98798.59
2022-08-28T05:02:39.413Z,98796.11
2022-08-28T05:03:13.237Z,98798.33
2022-08-28T05:03:48.297Z,98794.88
2022-08-28T05:04:21.538Z,98795.47
2022-08-28T05:04:54.790Z,98793.68
2022-08-28T05:05:28.572Z,98795.30
2022-08-28T05:06:02.864Z,98793.29
2022-08-28T05:06:36.058Z,98792.76
2022-08-28T05:07:09.297Z,98789.63
2022-08-28T05:07:42.562Z,98788.59
2022-08-28T05:08:22.033Z,98789.86
2022-08-28T05:08:57.751Z,98784.02
2022-08-28T05:09:32.197Z,98781.98
2022-08-28T05:10:06.082Z,98783.38
2022-08-28T05:10:40.526Z,98784.16
2022-08-28T05:11:33.393Z,98781.98
2022-08-28T05:12:08.417Z,98785.66
2022-08-28T05:12:41.911Z,98783.54
2022-08-28T05:13:16.432Z,98785.63
2022-08-28T05:13:51.257Z,98787.41
2022-08-28T05:14:27.802Z,98789.69
2022-08-28T05:15:00.943Z,98791.40
2022-08-28T05:15:38.601Z,98788.38
2022-08-28T05:16:12.934Z,98794.06
2022-08-28T05:16:53.418Z,98793.00
2022-08-28T05:17:26.831Z,98791.44
2022-08-28T05:18:06.301Z,98792.41
2022-08-28T05:18:40.284Z,98791.63
2022-08-28T05:19:15.752Z,98793.50
2022-08-28T05:19:48.865Z,98790.13
2022-08-28T05:20:22.783Z,98787.68
2022-08-28T05:20:55.996Z,98786.36
2022-08-28T05:21:29.321Z,98781.90
2022-08-28T05:22:02.583Z,98777.65
2022-08-28T05:22:35.865Z,98778.68
2022-08-28T05:23:11.997Z,98778.68
2022-08-28T05:23:45.072Z,98776.98
2022-08-28T05:24:18.634Z,98775.88
2022-08-28T05:24:51.935Z,98777.76
2022-08-28T05:25:25.280Z,98778.50
2022-08-28T05:25:58.616Z,98780.79
2022-08-28T05:26:33.437Z,98783.38
2022-08-28T05:27:09.529Z,98787.77
2022-08-28T05:27:42.800Z,98789.73
2022-08-28T05:28:17.537Z,98798.69
2022-08-28T05:28:50.863Z,98800.05
2022-08-28T05:29:24.151Z,98804.64
2022-08-28T05:30:01.911Z,98804.33
2022-08-28T05:30:37.622Z,98803.66
2022-08-28T05:31:17.706Z,98806.75
2022-08-28T05:31:50.922Z,98805.60
2022-08-28T05:32:24.581Z,98804.00
2022-08-28T05:32:59.399Z,98803.79
2022-08-28T05:33:32.811Z,98800.65
2022-08-28T05:34:06.824Z,98798.59
2022-08-28T05:34:40.415Z,98796.19
2022-08-28T05:35:14.072Z,98798.34
2022-08-28T05:35:48.001Z,98797.87
2022-08-28T05:36:25.302Z,98798.54
2022-08-28T05:37:06.977Z,98800.23
2022-08-28T05:37:40.024Z,98801.54
2022-08-28T05:38:17.332Z,98804.27
2022-08-28T05:38:53.318Z,98809.61
2022-08-28T05:39:27.914Z,98812.61
2022-08-28T05:40:01.025Z,98816.90
2022-08-28T05:40:35.049Z,98819.62
2022-08-28T05:41:08.776Z,98817.09
2022-08-28T05:41:44.078Z,98816.83
2022-08-28T05:42:17.310Z,98821.58
2022-08-28T05:42:51.418Z,98812.39
2022-08-28T05:43:26.151Z,98808.35
2022-08-28T05:44:01.462Z,98808.72
2022-08-28T05:44:34.628Z,98805.89
2022-08-28T05:45:08.934Z,98807.38
2022-08-28T05:45:43.145Z,98804.48
2022-08-28T05:46:17.502Z,98805.69
2022-08-28T05:46:51.248Z,98806.39
2022-08-28T05:47:24.512Z,98806.25
2022-08-28T05:47:57.799Z,98810.70
2022-08-28T05:48:34.874Z,98809.58
2022-08-28T05:49:13.766Z,98811.23
2022-08-28T05:49:47.184Z,98813.21
2022-08-28T05:50:20.554Z,98810.37
2022-08-28T05:50:54.321Z,98811.54
2022-08-28T05:51:28.722Z,98815.15
2022-08-28T05:52:02.026Z,98813.20
2022-08-28T05:52:36.340Z,98811.29
2022-08-28T05:53:09.622Z,98810.63
2022-08-28T05:53:44.939Z,98815.88
2022-08-28T05:54:18.230Z,98814.31
2022-08-28T05:54:52.031Z,98816.52
2022-08-28T05:55:25.386Z,98816.16
2022-08-28T05:55:58.552Z,98817.84
2022-08-28T05:56:38.852Z,98816.15
2022-08-28T05:57:12.116Z,98816.30
2022-08-28T05:57:45.375Z,98814.96
2022-08-28T05:58:31.868Z,98821.44
2022-08-28T05:59:06.701Z,98816.71
2022-08-28T05:59:40.226Z,98818.05
2022-08-28T06:00:14.665Z,98819.13
2022-08-28T06:00:48.117Z,98816.91
2022-08-28T06:01:28.892Z,98818.85
2022-08-28T06:02:04.510Z,98821.23
2022-08-28T06:02:37.859Z,98821.59
2022-08-28T06:03:10.960Z,98822.14
2022-08-28T06:03:51.735Z,98821.20
2022-08-28T06:04:28.346Z,98822.34
2022-08-28T06:05:02.373Z,98823.35
2022-08-28T06:05:35.474Z,98822.14
2022-08-28T06:06:10.267Z,98824.44
2022-08-28T06:06:44.194Z,98820.48
2022-08-28T06:07:17.330Z,98817.71
2022-08-28T06:07:51.684Z,98819.83
2022-08-28T06:08:24.857Z,98819.68
2022-08-28T06:09:05.899Z,98819.97
2022-08-28T06:09:39.862Z,98821.76
2022-08-28T06:10:13.118Z,98825.67
2022-08-28T06:10:47.831Z,98826.92
2022-08-28T06:11:24.456Z,98829.42
2022-08-28T06:12:01.722Z,98833.27
2022-08-28T06:12:35.536Z,98833.61
2022-08-28T06:13:09.166Z,98834.36
2022-08-28T06:13:42.654Z,98836.45
2022-08-28T06:14:21.098Z,98837.69
2022-08-28T06:14:54.699Z,98836.69
2022-08-28T06:15:29.366Z,98833.27
2022-08-28T06:16:02.848Z,98836.49
2022-08-28T06:16:38.205Z,98839.22
2022-08-28T06:17:11.509Z,98836.70
2022-08-28T06:17:44.724Z,98837.51
2022-08-28T06:18:18.540Z,98838.16
2022-08-28T06:18:51.813Z,98837.99
2022-08-28T06:19:27.207Z,98838.21
2022-08-28T06:20:00.342Z,98837.55
2022-08-28T06:20:38.387Z,98839.70
2022-08-28T06:21:11.610Z,98838.46
2022-08-28T06:21:47.173Z,98839.10
2022-08-28T06:22:20.888Z,98837.65
2022-08-28T06:22:54.338Z,98837.52
2022-08-28T06:23:27.550Z,98839.04
2022-08-28T06:24:00.805Z,98837.89
2022-08-28T06:24:34.797Z,98834.98
2022-08-28T06:25:09.676Z,98833.84
2022-08-28T06:25:47.391Z,98835.93
2022-08-28T06:26:20.553Z,98835.17
2022-08-28T06:26:54.628Z,98841.91
2022-08-28T06:27:33.875Z,98843.86
2022-08-28T06:28:07.941Z,98841.98
2022-08-28T06:28:42.558Z,98841.01
2022-08-28T06:29:21.144Z,98839.44
2022-08-28T06:29:55.500Z,98843.80
2022-08-28T06:30:28.767Z,98843.77
2022-08-28T06:31:24.348Z,98846.76
2022-08-28T06:32:01.759Z,98850.06
2022-08-28T06:32:34.972Z,98847.27
2022-08-28T06:33:08.214Z,98843.62
2022-08-28T06:33:42.647Z,98845.35
2022-08-28T06:34:15.841Z,98849.24
2022-08-28T06:34:49.180Z,98850.55
2022-08-28T06:35:22.409Z,98847.01
2022-08-28T06:35:56.725Z,98850.34
2022-08-28T06:36:32.749Z,98851.91
2022-08-28T06:37:05.939Z,98853.50
2022-08-28T06:37:39.224Z,98852.54
2022-08-28T06:38:12.953Z,98854.67
2022-08-28T06:38:47.072Z,98853.70
2022-08-28T06:39:20.423Z,98852.33
2022-08-28T06:39:53.744Z,98858.80
2022-08-28T06:40:27.725Z,98855.23
2022-08-28T06:41:01.184Z,98854.57
2022-08-28T06:41:34.875Z,98860.08
2022-08-28T06:42:08.330Z,98859.88
2022-08-28T06:42:41.818Z,98861.29
2022-08-28T06:43:16.808Z,98865.13
2022-08-28T06:43:50.456Z,98862.59
2022-08-28T06:44:24.076Z,98861.95
2022-08-28T06:44:58.405Z,98862.39
2022-08-28T06:45:32.200Z,98859.96
2022-08-28T06:46:05.682Z,98864.00
2022-08-28T06:46:39.397Z,98864.27
2022-08-28T06:47:12.767Z,98862.88
2022-08-28T06:47:48.369Z,98862.41
2022-08-28T06:48:27.806Z,98863.11
2022-08-28T06:49:05.283Z,98864.46
2022-08-28T06:49:38.385Z,98862.20
2022-08-28T06:50:11.925Z,98860.05
2022-08-28T06:50:47.913Z,98858.41
2022-08-28T06:51:23.170Z,98859.69
2022-08-28T06:51:58.682Z,98859.36
2022-08-28T06:52:31.915Z,98857.02